sensor_id;sensor_type;location;lat;lon;timestamp;P1;durP1;ratioP1;P2;durP2;ratioP2
72924;SDS011;61070;50.794;7.054;2023-04-24T00:00:21;2.03;;;0.80;;
72924;SDS011;61070;50.794;7.054;2023-04-24T00:02:46;3.40;;;0.80;;
72924;SDS011;61070;50.794;7.054;2023-04-24T00:05:12;0.60;;;0.50;;
72924;SDS011;61070;50.794;7.054;2023-04-24T00:07:40;1.45;;;0.73;;
72924;SDS011;61070;50.794;7.054;2023-04-24T00:10:06;2.08;;;0.63;;
72924;SDS011;61070;50.794;7.054;2023-04-24T00:12:32;1.48;;;0.63;;
72924;SDS011;61070;50.794;7.054;2023-04-24T00:14:57;3.10;;;0.70;;
72924;SDS011;61070;50.794;7.054;2023-04-24T00:17:23;1.08;;;0.80;;
72924;SDS011;61070;50.794;7.054;2023-04-24T00:19:48;1.48;;;0.70;;
72924;SDS011;61070;50.794;7.054;2023-04-24T00:22:16;0.70;;;0.70;;
72924;SDS011;61070;50.794;7.054;2023-04-24T00:24:42;1.65;;;0.60;;
72924;SDS011;61070;50.794;7.054;2023-04-24T00:27:07;1.05;;;0.60;;
72924;SDS011;61070;50.794;7.054;2023-04-24T00:29:33;3.63;;;0.60;;
72924;SDS011;61070;50.794;7.054;2023-04-24T00:31:58;0.90;;;0.50;;
72924;SDS011;61070;50.794;7.054;2023-04-24T00:34:23;4.35;;;0.50;;
72924;SDS011;61070;50.794;7.054;2023-04-24T00:36:49;2.50;;;0.60;;
72924;SDS011;61070;50.794;7.054;2023-04-24T00:39:17;2.20;;;1.45;;
72924;SDS011;61070;50.794;7.054;2023-04-24T00:41:43;2.45;;;0.93;;
72924;SDS011;61070;50.794;7.054;2023-04-24T00:44:08;0.30;;;0.30;;
72924;SDS011;61070;50.794;7.054;2023-04-24T00:46:34;3.05;;;0.47;;
72924;SDS011;61070;50.794;7.054;2023-04-24T00:48:59;0.80;;;0.60;;
72924;SDS011;61070;50.794;7.054;2023-04-24T00:51:24;0.43;;;0.38;;
72924;SDS011;61070;50.794;7.054;2023-04-24T00:53:50;1.27;;;0.40;;
72924;SDS011;61070;50.794;7.054;2023-04-24T00:56:16;2.00;;;0.73;;
72924;SDS011;61070;50.794;7.054;2023-04-24T00:58:42;0.80;;;0.40;;
72924;SDS011;61070;50.794;7.054;2023-04-24T01:01:08;1.20;;;0.40;;
72924;SDS011;61070;50.794;7.054;2023-04-24T01:03:34;0.90;;;0.60;;
72924;SDS011;61070;50.794;7.054;2023-04-24T01:06:02;2.22;;;0.75;;
72924;SDS011;61070;50.794;7.054;2023-04-24T01:08:28;1.35;;;0.60;;
72924;SDS011;61070;50.794;7.054;2023-04-24T01:10:54;1.63;;;0.60;;
72924;SDS011;61070;50.794;7.054;2023-04-24T01:13:21;0.47;;;0.40;;
72924;SDS011;61070;50.794;7.054;2023-04-24T01:15:47;1.33;;;0.80;;
72924;SDS011;61070;50.794;7.054;2023-04-24T01:18:13;0.80;;;0.43;;
72924;SDS011;61070;50.794;7.054;2023-04-24T01:20:40;1.17;;;0.60;;
72924;SDS011;61070;50.794;7.054;2023-04-24T01:23:07;1.67;;;0.52;;
72924;SDS011;61070;50.794;7.054;2023-04-24T01:25:33;0.90;;;0.65;;
72924;SDS011;61070;50.794;7.054;2023-04-24T01:27:59;1.75;;;0.80;;
72924;SDS011;61070;50.794;7.054;2023-04-24T01:30:25;1.52;;;0.88;;
72924;SDS011;61070;50.794;7.054;2023-04-24T01:32:51;1.33;;;0.70;;
72924;SDS011;61070;50.794;7.054;2023-04-24T01:35:16;1.30;;;1.20;;
72924;SDS011;61070;50.794;7.054;2023-04-24T01:37:42;1.27;;;1.00;;
72924;SDS011;61070;50.794;7.054;2023-04-24T01:40:07;2.20;;;0.95;;
72924;SDS011;61070;50.794;7.054;2023-04-24T01:42:34;1.77;;;1.35;;
72924;SDS011;61070;50.794;7.054;2023-04-24T01:44:59;2.05;;;1.13;;
72924;SDS011;61070;50.794;7.054;2023-04-24T01:47:26;3.33;;;1.30;;
72924;SDS011;61070;50.794;7.054;2023-04-24T01:49:52;2.40;;;1.38;;
72924;SDS011;61070;50.794;7.054;2023-04-24T01:52:17;3.35;;;1.40;;
72924;SDS011;61070;50.794;7.054;2023-04-24T01:54:43;2.30;;;1.52;;
72924;SDS011;61070;50.794;7.054;2023-04-24T01:57:09;2.47;;;1.65;;
72924;SDS011;61070;50.794;7.054;2023-04-24T01:59:35;2.25;;;1.55;;
72924;SDS011;61070;50.794;7.054;2023-04-24T02:02:01;1.77;;;1.13;;
72924;SDS011;61070;50.794;7.054;2023-04-24T02:04:27;2.65;;;1.45;;
72924;SDS011;61070;50.794;7.054;2023-04-24T02:06:52;2.15;;;1.33;;
72924;SDS011;61070;50.794;7.054;2023-04-24T02:09:18;4.60;;;1.58;;
72924;SDS011;61070;50.794;7.054;2023-04-24T02:11:43;3.80;;;1.40;;
72924;SDS011;61070;50.794;7.054;2023-04-24T02:14:08;2.75;;;1.70;;
72924;SDS011;61070;50.794;7.054;2023-04-24T02:16:34;4.20;;;1.88;;
72924;SDS011;61070;50.794;7.054;2023-04-24T02:19:01;5.85;;;2.55;;
72924;SDS011;61070;50.794;7.054;2023-04-24T02:21:26;5.00;;;1.92;;
72924;SDS011;61070;50.794;7.054;2023-04-24T02:23:52;3.47;;;2.00;;
72924;SDS011;61070;50.794;7.054;2023-04-24T02:26:18;3.15;;;2.10;;
72924;SDS011;61070;50.794;7.054;2023-04-24T02:28:43;6.38;;;2.47;;
72924;SDS011;61070;50.794;7.054;2023-04-24T02:31:09;5.97;;;2.30;;
72924;SDS011;61070;50.794;7.054;2023-04-24T02:33:34;5.68;;;2.90;;
72924;SDS011;61070;50.794;7.054;2023-04-24T02:36:00;6.30;;;3.50;;
72924;SDS011;61070;50.794;7.054;2023-04-24T02:38:26;6.53;;;4.10;;
72924;SDS011;61070;50.794;7.054;2023-04-24T02:40:51;13.85;;;4.60;;
72924;SDS011;61070;50.794;7.054;2023-04-24T02:43:17;11.02;;;4.72;;
72924;SDS011;61070;50.794;7.054;2023-04-24T02:45:42;7.53;;;4.22;;
72924;SDS011;61070;50.794;7.054;2023-04-24T02:48:07;11.57;;;4.93;;
72924;SDS011;61070;50.794;7.054;2023-04-24T02:50:33;6.88;;;4.68;;
72924;SDS011;61070;50.794;7.054;2023-04-24T02:52:58;7.05;;;4.40;;
72924;SDS011;61070;50.794;7.054;2023-04-24T02:55:23;14.38;;;4.43;;
72924;SDS011;61070;50.794;7.054;2023-04-24T02:57:50;12.80;;;4.40;;
72924;SDS011;61070;50.794;7.054;2023-04-24T03:00:15;8.95;;;4.60;;
72924;SDS011;61070;50.794;7.054;2023-04-24T03:02:40;11.48;;;4.40;;
72924;SDS011;61070;50.794;7.054;2023-04-24T03:05:07;8.27;;;5.47;;
72924;SDS011;61070;50.794;7.054;2023-04-24T03:07:33;7.35;;;5.00;;
72924;SDS011;61070;50.794;7.054;2023-04-24T03:09:59;7.82;;;4.22;;
72924;SDS011;61070;50.794;7.054;2023-04-24T03:12:24;6.30;;;4.13;;
72924;SDS011;61070;50.794;7.054;2023-04-24T03:14:50;8.77;;;4.85;;
72924;SDS011;61070;50.794;7.054;2023-04-24T03:17:15;9.25;;;4.50;;
72924;SDS011;61070;50.794;7.054;2023-04-24T03:19:41;6.65;;;4.38;;
72924;SDS011;61070;50.794;7.054;2023-04-24T03:22:06;8.32;;;5.10;;
72924;SDS011;61070;50.794;7.054;2023-04-24T03:24:31;8.05;;;4.43;;
72924;SDS011;61070;50.794;7.054;2023-04-24T03:26:57;10.02;;;4.57;;
72924;SDS011;61070;50.794;7.054;2023-04-24T03:29:22;6.05;;;4.25;;
72924;SDS011;61070;50.794;7.054;2023-04-24T03:31:47;8.23;;;4.20;;
72924;SDS011;61070;50.794;7.054;2023-04-24T03:34:13;6.15;;;4.25;;
72924;SDS011;61070;50.794;7.054;2023-04-24T03:36:38;6.80;;;4.63;;
72924;SDS011;61070;50.794;7.054;2023-04-24T03:39:03;6.07;;;4.45;;
72924;SDS011;61070;50.794;7.054;2023-04-24T03:41:29;8.77;;;3.95;;
72924;SDS011;61070;50.794;7.054;2023-04-24T03:43:55;9.85;;;5.22;;
72924;SDS011;61070;50.794;7.054;2023-04-24T03:46:20;5.78;;;4.15;;
72924;SDS011;61070;50.794;7.054;2023-04-24T03:48:46;6.32;;;4.20;;
72924;SDS011;61070;50.794;7.054;2023-04-24T03:51:11;9.43;;;4.25;;
72924;SDS011;61070;50.794;7.054;2023-04-24T03:53:36;6.88;;;3.97;;
72924;SDS011;61070;50.794;7.054;2023-04-24T03:56:01;9.35;;;4.40;;
72924;SDS011;61070;50.794;7.054;2023-04-24T03:58:27;11.27;;;5.32;;
72924;SDS011;61070;50.794;7.054;2023-04-24T04:00:52;9.40;;;4.82;;
72924;SDS011;61070;50.794;7.054;2023-04-24T04:03:17;10.05;;;4.85;;
72924;SDS011;61070;50.794;7.054;2023-04-24T04:05:43;9.73;;;4.32;;
72924;SDS011;61070;50.794;7.054;2023-04-24T04:08:08;9.38;;;4.90;;
72924;SDS011;61070;50.794;7.054;2023-04-24T04:10:33;8.23;;;5.10;;
72924;SDS011;61070;50.794;7.054;2023-04-24T04:12:58;8.70;;;4.78;;
72924;SDS011;61070;50.794;7.054;2023-04-24T04:15:25;13.60;;;4.72;;
72924;SDS011;61070;50.794;7.054;2023-04-24T04:17:50;7.35;;;4.72;;
72924;SDS011;61070;50.794;7.054;2023-04-24T04:20:15;8.20;;;5.47;;
72924;SDS011;61070;50.794;7.054;2023-04-24T04:22:40;7.65;;;5.30;;
72924;SDS011;61070;50.794;7.054;2023-04-24T04:25:06;8.38;;;5.72;;
72924;SDS011;61070;50.794;7.054;2023-04-24T04:27:31;8.70;;;5.32;;
72924;SDS011;61070;50.794;7.054;2023-04-24T04:29:57;6.28;;;4.70;;
72924;SDS011;61070;50.794;7.054;2023-04-24T04:32:26;9.18;;;4.70;;
72924;SDS011;61070;50.794;7.054;2023-04-24T04:34:51;10.57;;;5.05;;
72924;SDS011;61070;50.794;7.054;2023-04-24T04:37:18;8.07;;;5.53;;
72924;SDS011;61070;50.794;7.054;2023-04-24T04:39:43;6.85;;;5.07;;
72924;SDS011;61070;50.794;7.054;2023-04-24T04:42:09;11.35;;;5.35;;
72924;SDS011;61070;50.794;7.054;2023-04-24T04:44:34;8.65;;;5.47;;
72924;SDS011;61070;50.794;7.054;2023-04-24T04:47:00;9.90;;;5.57;;
72924;SDS011;61070;50.794;7.054;2023-04-24T04:49:28;12.60;;;5.00;;
72924;SDS011;61070;50.794;7.054;2023-04-24T04:51:54;7.20;;;5.15;;
72924;SDS011;61070;50.794;7.054;2023-04-24T04:54:19;7.68;;;4.97;;
72924;SDS011;61070;50.794;7.054;2023-04-24T04:56:44;9.10;;;5.20;;
72924;SDS011;61070;50.794;7.054;2023-04-24T04:59:10;7.68;;;4.85;;
72924;SDS011;61070;50.794;7.054;2023-04-24T05:01:35;9.57;;;5.75;;
72924;SDS011;61070;50.794;7.054;2023-04-24T05:04:01;10.65;;;4.68;;
72924;SDS011;61070;50.794;7.054;2023-04-24T05:06:27;10.40;;;5.22;;
72924;SDS011;61070;50.794;7.054;2023-04-24T05:08:52;10.77;;;5.28;;
72924;SDS011;61070;50.794;7.054;2023-04-24T05:11:22;8.23;;;4.87;;
72924;SDS011;61070;50.794;7.054;2023-04-24T05:13:47;7.50;;;5.30;;
72924;SDS011;61070;50.794;7.054;2023-04-24T05:16:12;13.25;;;5.88;;
72924;SDS011;61070;50.794;7.054;2023-04-24T05:18:38;9.48;;;5.15;;
72924;SDS011;61070;50.794;7.054;2023-04-24T05:21:03;12.50;;;5.32;;
72924;SDS011;61070;50.794;7.054;2023-04-24T05:23:28;10.13;;;5.20;;
72924;SDS011;61070;50.794;7.054;2023-04-24T05:25:54;9.27;;;5.32;;
72924;SDS011;61070;50.794;7.054;2023-04-24T05:28:19;9.55;;;4.80;;
72924;SDS011;61070;50.794;7.054;2023-04-24T05:30:45;8.50;;;5.57;;
72924;SDS011;61070;50.794;7.054;2023-04-24T05:33:11;8.60;;;4.88;;
72924;SDS011;61070;50.794;7.054;2023-04-24T05:35:36;10.52;;;5.25;;
72924;SDS011;61070;50.794;7.054;2023-04-24T05:38:01;9.18;;;4.88;;
72924;SDS011;61070;50.794;7.054;2023-04-24T05:40:27;10.27;;;5.13;;
72924;SDS011;61070;50.794;7.054;2023-04-24T05:42:52;8.55;;;4.78;;
72924;SDS011;61070;50.794;7.054;2023-04-24T05:45:17;8.93;;;4.97;;
72924;SDS011;61070;50.794;7.054;2023-04-24T05:47:43;8.13;;;4.28;;
72924;SDS011;61070;50.794;7.054;2023-04-24T05:50:09;8.15;;;4.72;;
72924;SDS011;61070;50.794;7.054;2023-04-24T05:52:35;7.43;;;4.82;;
72924;SDS011;61070;50.794;7.054;2023-04-24T05:55:00;11.20;;;5.43;;
72924;SDS011;61070;50.794;7.054;2023-04-24T05:57:25;7.00;;;4.68;;
72924;SDS011;61070;50.794;7.054;2023-04-24T05:59:51;7.63;;;4.25;;
72924;SDS011;61070;50.794;7.054;2023-04-24T06:02:16;6.22;;;4.55;;
72924;SDS011;61070;50.794;7.054;2023-04-24T06:04:42;8.50;;;4.78;;
72924;SDS011;61070;50.794;7.054;2023-04-24T06:07:07;9.35;;;4.65;;
72924;SDS011;61070;50.794;7.054;2023-04-24T06:09:32;10.95;;;4.72;;
72924;SDS011;61070;50.794;7.054;2023-04-24T06:11:58;11.80;;;4.85;;
72924;SDS011;61070;50.794;7.054;2023-04-24T06:14:24;7.95;;;5.38;;
72924;SDS011;61070;50.794;7.054;2023-04-24T06:16:50;7.13;;;4.80;;
72924;SDS011;61070;50.794;7.054;2023-04-24T06:19:15;14.38;;;5.88;;
72924;SDS011;61070;50.794;7.054;2023-04-24T06:21:41;8.48;;;5.13;;
72924;SDS011;61070;50.794;7.054;2023-04-24T06:24:06;13.38;;;5.70;;
72924;SDS011;61070;50.794;7.054;2023-04-24T06:26:31;6.65;;;4.63;;
72924;SDS011;61070;50.794;7.054;2023-04-24T06:28:57;10.13;;;4.88;;
72924;SDS011;61070;50.794;7.054;2023-04-24T06:31:24;11.63;;;5.22;;
72924;SDS011;61070;50.794;7.054;2023-04-24T06:33:49;9.65;;;4.95;;
72924;SDS011;61070;50.794;7.054;2023-04-24T06:36:15;7.60;;;4.22;;
72924;SDS011;61070;50.794;7.054;2023-04-24T06:38:40;9.43;;;4.43;;
72924;SDS011;61070;50.794;7.054;2023-04-24T06:41:06;5.95;;;3.90;;
72924;SDS011;61070;50.794;7.054;2023-04-24T06:43:31;4.35;;;3.38;;
72924;SDS011;61070;50.794;7.054;2023-04-24T06:45:57;7.20;;;4.28;;
72924;SDS011;61070;50.794;7.054;2023-04-24T06:48:23;11.32;;;4.30;;
72924;SDS011;61070;50.794;7.054;2023-04-24T06:50:49;5.28;;;3.95;;
72924;SDS011;61070;50.794;7.054;2023-04-24T06:53:14;6.28;;;4.15;;
72924;SDS011;61070;50.794;7.054;2023-04-24T06:55:39;6.72;;;4.03;;
72924;SDS011;61070;50.794;7.054;2023-04-24T06:58:05;5.75;;;3.47;;
72924;SDS011;61070;50.794;7.054;2023-04-24T07:00:31;4.38;;;3.22;;
72924;SDS011;61070;50.794;7.054;2023-04-24T07:02:56;3.92;;;2.78;;
72924;SDS011;61070;50.794;7.054;2023-04-24T07:05:22;4.20;;;2.88;;
72924;SDS011;61070;50.794;7.054;2023-04-24T07:07:48;5.00;;;2.60;;
72924;SDS011;61070;50.794;7.054;2023-04-24T07:10:14;4.82;;;2.35;;
72924;SDS011;61070;50.794;7.054;2023-04-24T07:12:40;4.03;;;1.90;;
72924;SDS011;61070;50.794;7.054;2023-04-24T07:15:05;4.38;;;1.88;;
72924;SDS011;61070;50.794;7.054;2023-04-24T07:17:32;2.15;;;1.80;;
72924;SDS011;61070;50.794;7.054;2023-04-24T07:19:58;4.88;;;1.98;;
72924;SDS011;61070;50.794;7.054;2023-04-24T07:22:23;4.13;;;1.52;;
72924;SDS011;61070;50.794;7.054;2023-04-24T07:24:50;3.47;;;1.60;;
72924;SDS011;61070;50.794;7.054;2023-04-24T07:27:15;2.58;;;1.52;;
72924;SDS011;61070;50.794;7.054;2023-04-24T07:29:42;3.13;;;1.48;;
72924;SDS011;61070;50.794;7.054;2023-04-24T07:32:07;2.13;;;1.50;;
72924;SDS011;61070;50.794;7.054;2023-04-24T07:34:34;7.07;;;1.67;;
72924;SDS011;61070;50.794;7.054;2023-04-24T07:36:59;2.63;;;1.70;;
72924;SDS011;61070;50.794;7.054;2023-04-24T07:39:24;2.55;;;1.25;;
72924;SDS011;61070;50.794;7.054;2023-04-24T07:41:51;1.77;;;1.17;;
72924;SDS011;61070;50.794;7.054;2023-04-24T07:44:16;1.02;;;0.88;;
72924;SDS011;61070;50.794;7.054;2023-04-24T07:46:41;3.78;;;1.25;;
72924;SDS011;61070;50.794;7.054;2023-04-24T07:49:07;0.95;;;0.88;;
72924;SDS011;61070;50.794;7.054;2023-04-24T07:51:32;1.58;;;1.08;;
72924;SDS011;61070;50.794;7.054;2023-04-24T07:54:03;1.67;;;1.10;;
72924;SDS011;61070;50.794;7.054;2023-04-24T07:56:28;2.20;;;1.15;;
72924;SDS011;61070;50.794;7.054;2023-04-24T07:58:56;1.20;;;0.82;;
72924;SDS011;61070;50.794;7.054;2023-04-24T08:01:21;2.67;;;1.10;;
72924;SDS011;61070;50.794;7.054;2023-04-24T08:03:46;1.73;;;1.27;;
72924;SDS011;61070;50.794;7.054;2023-04-24T08:06:12;1.65;;;1.10;;
72924;SDS011;61070;50.794;7.054;2023-04-24T08:08:37;1.15;;;0.80;;
72924;SDS011;61070;50.794;7.054;2023-04-24T08:11:02;3.63;;;1.58;;
72924;SDS011;61070;50.794;7.054;2023-04-24T08:13:28;1.40;;;0.80;;
72924;SDS011;61070;50.794;7.054;2023-04-24T08:15:53;2.17;;;0.90;;
72924;SDS011;61070;50.794;7.054;2023-04-24T08:18:18;2.13;;;1.10;;
72924;SDS011;61070;50.794;7.054;2023-04-24T08:20:43;1.40;;;1.05;;
72924;SDS011;61070;50.794;7.054;2023-04-24T08:23:10;1.80;;;1.30;;
72924;SDS011;61070;50.794;7.054;2023-04-24T08:25:35;1.55;;;1.10;;
72924;SDS011;61070;50.794;7.054;2023-04-24T08:28:02;1.65;;;1.25;;
72924;SDS011;61070;50.794;7.054;2023-04-24T08:30:28;2.85;;;1.60;;
72924;SDS011;61070;50.794;7.054;2023-04-24T08:32:54;3.40;;;1.65;;
72924;SDS011;61070;50.794;7.054;2023-04-24T08:35:19;7.03;;;2.25;;
72924;SDS011;61070;50.794;7.054;2023-04-24T08:37:44;3.35;;;1.85;;
72924;SDS011;61070;50.794;7.054;2023-04-24T08:40:12;5.10;;;1.40;;
72924;SDS011;61070;50.794;7.054;2023-04-24T08:42:39;3.97;;;1.45;;
72924;SDS011;61070;50.794;7.054;2023-04-24T08:45:06;2.70;;;1.55;;
72924;SDS011;61070;50.794;7.054;2023-04-24T08:47:32;1.30;;;1.10;;
72924;SDS011;61070;50.794;7.054;2023-04-24T08:49:59;3.92;;;1.38;;
72924;SDS011;61070;50.794;7.054;2023-04-24T08:52:27;3.05;;;1.65;;
72924;SDS011;61070;50.794;7.054;2023-04-24T08:54:53;4.80;;;1.17;;
72924;SDS011;61070;50.794;7.054;2023-04-24T08:57:19;4.05;;;2.03;;
72924;SDS011;61070;50.794;7.054;2023-04-24T08:59:44;3.92;;;1.80;;
72924;SDS011;61070;50.794;7.054;2023-04-24T09:02:11;3.05;;;1.60;;
72924;SDS011;61070;50.794;7.054;2023-04-24T09:04:38;2.78;;;1.52;;
72924;SDS011;61070;50.794;7.054;2023-04-24T09:07:05;6.35;;;2.00;;
72924;SDS011;61070;50.794;7.054;2023-04-24T09:09:32;5.40;;;2.40;;
72924;SDS011;61070;50.794;7.054;2023-04-24T09:11:57;5.65;;;2.63;;
72924;SDS011;61070;50.794;7.054;2023-04-24T09:14:23;4.38;;;2.67;;
72924;SDS011;61070;50.794;7.054;2023-04-24T09:16:49;4.18;;;2.42;;
72924;SDS011;61070;50.794;7.054;2023-04-24T09:19:15;5.28;;;2.80;;
72924;SDS011;61070;50.794;7.054;2023-04-24T09:21:40;6.00;;;2.60;;
72924;SDS011;61070;50.794;7.054;2023-04-24T09:24:14;5.47;;;3.00;;
72924;SDS011;61070;50.794;7.054;2023-04-24T09:26:42;4.18;;;3.00;;
72924;SDS011;61070;50.794;7.054;2023-04-24T09:29:13;6.38;;;4.07;;
72924;SDS011;61070;50.794;7.054;2023-04-24T09:31:40;5.78;;;3.42;;
72924;SDS011;61070;50.794;7.054;2023-04-24T09:34:06;5.60;;;3.42;;
72924;SDS011;61070;50.794;7.054;2023-04-24T09:36:35;4.88;;;3.25;;
72924;SDS011;61070;50.794;7.054;2023-04-24T09:39:10;6.20;;;3.28;;
72924;SDS011;61070;50.794;7.054;2023-04-24T09:44:14;5.22;;;3.70;;
72924;SDS011;61070;50.794;7.054;2023-04-24T09:46:41;7.65;;;3.85;;
72924;SDS011;61070;50.794;7.054;2023-04-24T09:49:08;5.40;;;3.65;;
72924;SDS011;61070;50.794;7.054;2023-04-24T09:51:36;5.47;;;3.42;;
72924;SDS011;61070;50.794;7.054;2023-04-24T09:54:03;7.50;;;3.50;;
72924;SDS011;61070;50.794;7.054;2023-04-24T09:56:32;10.65;;;4.00;;
72924;SDS011;61070;50.794;7.054;2023-04-24T09:59:04;6.93;;;3.83;;
72924;SDS011;61070;50.794;7.054;2023-04-24T10:01:31;8.77;;;3.42;;
72924;SDS011;61070;50.794;7.054;2023-04-24T10:03:57;8.80;;;4.20;;
72924;SDS011;61070;50.794;7.054;2023-04-24T10:06:22;10.77;;;4.18;;
72924;SDS011;61070;50.794;7.054;2023-04-24T10:09:01;8.52;;;3.67;;
72924;SDS011;61070;50.794;7.054;2023-04-24T10:11:28;8.63;;;3.58;;
72924;SDS011;61070;50.794;7.054;2023-04-24T10:13:54;8.48;;;3.05;;
72924;SDS011;61070;50.794;7.054;2023-04-24T10:16:21;7.35;;;3.42;;
72924;SDS011;61070;50.794;7.054;2023-04-24T10:18:48;6.00;;;2.85;;
72924;SDS011;61070;50.794;7.054;2023-04-24T10:21:13;6.72;;;3.20;;
72924;SDS011;61070;50.794;7.054;2023-04-24T10:23:39;10.52;;;3.25;;
72924;SDS011;61070;50.794;7.054;2023-04-24T10:26:08;6.35;;;3.70;;
72924;SDS011;61070;50.794;7.054;2023-04-24T10:28:34;6.95;;;3.20;;
72924;SDS011;61070;50.794;7.054;2023-04-24T10:31:01;11.88;;;4.13;;
72924;SDS011;61070;50.794;7.054;2023-04-24T10:33:26;7.75;;;3.45;;
72924;SDS011;61070;50.794;7.054;2023-04-24T10:35:54;5.50;;;3.25;;
72924;SDS011;61070;50.794;7.054;2023-04-24T10:38:24;10.07;;;3.80;;
72924;SDS011;61070;50.794;7.054;2023-04-24T10:41:13;6.50;;;3.40;;
72924;SDS011;61070;50.794;7.054;2023-04-24T10:43:44;5.32;;;3.22;;
72924;SDS011;61070;50.794;7.054;2023-04-24T10:46:10;5.55;;;3.60;;
72924;SDS011;61070;50.794;7.054;2023-04-24T10:48:44;16.77;;;4.28;;
72924;SDS011;61070;50.794;7.054;2023-04-24T10:51:18;8.52;;;3.47;;
72924;SDS011;61070;50.794;7.054;2023-04-24T10:53:47;10.38;;;3.80;;
72924;SDS011;61070;50.794;7.054;2023-04-24T10:56:15;16.05;;;4.10;;
72924;SDS011;61070;50.794;7.054;2023-04-24T10:58:42;11.68;;;4.00;;
72924;SDS011;61070;50.794;7.054;2023-04-24T11:01:23;9.55;;;4.30;;
72924;SDS011;61070;50.794;7.054;2023-04-24T11:03:57;9.57;;;4.60;;
72924;SDS011;61070;50.794;7.054;2023-04-24T11:06:30;14.73;;;3.90;;
72924;SDS011;61070;50.794;7.054;2023-04-24T11:09:07;10.52;;;4.20;;
72924;SDS011;61070;50.794;7.054;2023-04-24T11:11:44;13.03;;;4.03;;
72924;SDS011;61070;50.794;7.054;2023-04-24T11:14:10;14.32;;;5.10;;
72924;SDS011;61070;50.794;7.054;2023-04-24T11:16:42;12.80;;;4.68;;
72924;SDS011;61070;50.794;7.054;2023-04-24T11:21:57;14.00;;;5.40;;
72924;SDS011;61070;50.794;7.054;2023-04-24T11:24:48;14.73;;;5.45;;
72924;SDS011;61070;50.794;7.054;2023-04-24T11:27:16;16.23;;;6.03;;
72924;SDS011;61070;50.794;7.054;2023-04-24T11:34:51;11.48;;;5.75;;
72924;SDS011;61070;50.794;7.054;2023-04-24T11:37:18;11.57;;;6.57;;
72924;SDS011;61070;50.794;7.054;2023-04-24T11:39:43;16.90;;;6.65;;
72924;SDS011;61070;50.794;7.054;2023-04-24T11:42:09;18.90;;;6.03;;
72924;SDS011;61070;50.794;7.054;2023-04-24T11:44:34;20.25;;;6.82;;
72924;SDS011;61070;50.794;7.054;2023-04-24T11:47:02;13.85;;;5.95;;
72924;SDS011;61070;50.794;7.054;2023-04-24T11:49:29;14.75;;;6.50;;
72924;SDS011;61070;50.794;7.054;2023-04-24T11:51:55;11.98;;;5.68;;
72924;SDS011;61070;50.794;7.054;2023-04-24T11:54:21;15.23;;;4.60;;
72924;SDS011;61070;50.794;7.054;2023-04-24T11:56:47;16.80;;;5.70;;
72924;SDS011;61070;50.794;7.054;2023-04-24T11:59:13;11.63;;;5.15;;
72924;SDS011;61070;50.794;7.054;2023-04-24T12:01:47;8.80;;;5.05;;
72924;SDS011;61070;50.794;7.054;2023-04-24T12:04:14;11.60;;;4.90;;
72924;SDS011;61070;50.794;7.054;2023-04-24T12:06:59;12.52;;;5.25;;
72924;SDS011;61070;50.794;7.054;2023-04-24T12:09:26;19.73;;;5.50;;
72924;SDS011;61070;50.794;7.054;2023-04-24T12:11:56;13.90;;;4.47;;
72924;SDS011;61070;50.794;7.054;2023-04-24T12:14:24;11.45;;;5.03;;
72924;SDS011;61070;50.794;7.054;2023-04-24T12:16:50;14.32;;;5.20;;
72924;SDS011;61070;50.794;7.054;2023-04-24T12:19:25;10.55;;;5.00;;
72924;SDS011;61070;50.794;7.054;2023-04-24T12:22:03;15.90;;;5.05;;
72924;SDS011;61070;50.794;7.054;2023-04-24T12:24:30;12.60;;;5.22;;
72924;SDS011;61070;50.794;7.054;2023-04-24T12:26:56;15.00;;;4.97;;
72924;SDS011;61070;50.794;7.054;2023-04-24T12:29:23;14.02;;;5.25;;
72924;SDS011;61070;50.794;7.054;2023-04-24T12:31:49;10.40;;;5.30;;
72924;SDS011;61070;50.794;7.054;2023-04-24T12:34:19;15.70;;;5.95;;
72924;SDS011;61070;50.794;7.054;2023-04-24T12:36:46;18.27;;;5.90;;
72924;SDS011;61070;50.794;7.054;2023-04-24T12:39:18;17.55;;;6.05;;
72924;SDS011;61070;50.794;7.054;2023-04-24T12:41:54;15.23;;;6.03;;
72924;SDS011;61070;50.794;7.054;2023-04-24T12:44:28;11.43;;;6.13;;
72924;SDS011;61070;50.794;7.054;2023-04-24T12:46:55;22.10;;;6.30;;
72924;SDS011;61070;50.794;7.054;2023-04-24T12:49:20;21.42;;;6.93;;
72924;SDS011;61070;50.794;7.054;2023-04-24T12:51:46;15.82;;;6.70;;
72924;SDS011;61070;50.794;7.054;2023-04-24T12:54:11;15.27;;;6.50;;
72924;SDS011;61070;50.794;7.054;2023-04-24T12:56:36;19.02;;;6.78;;
72924;SDS011;61070;50.794;7.054;2023-04-24T12:59:04;19.55;;;6.60;;
72924;SDS011;61070;50.794;7.054;2023-04-24T13:01:30;19.88;;;7.47;;
72924;SDS011;61070;50.794;7.054;2023-04-24T13:03:55;16.42;;;6.25;;
72924;SDS011;61070;50.794;7.054;2023-04-24T13:06:20;24.23;;;6.50;;
72924;SDS011;61070;50.794;7.054;2023-04-24T13:08:46;13.93;;;6.32;;
72924;SDS011;61070;50.794;7.054;2023-04-24T13:11:12;14.00;;;5.40;;
72924;SDS011;61070;50.794;7.054;2023-04-24T13:13:38;15.18;;;5.55;;
72924;SDS011;61070;50.794;7.054;2023-04-24T13:16:03;17.35;;;5.78;;
72924;SDS011;61070;50.794;7.054;2023-04-24T13:18:29;11.45;;;5.00;;
72924;SDS011;61070;50.794;7.054;2023-04-24T13:20:54;15.13;;;5.07;;
72924;SDS011;61070;50.794;7.054;2023-04-24T13:23:20;11.95;;;5.53;;
72924;SDS011;61070;50.794;7.054;2023-04-24T13:25:46;12.57;;;5.22;;
72924;SDS011;61070;50.794;7.054;2023-04-24T13:28:12;17.00;;;5.32;;
72924;SDS011;61070;50.794;7.054;2023-04-24T13:30:37;14.85;;;4.65;;
72924;SDS011;61070;50.794;7.054;2023-04-24T13:33:03;18.20;;;5.43;;
72924;SDS011;61070;50.794;7.054;2023-04-24T13:35:28;15.20;;;5.03;;
72924;SDS011;61070;50.794;7.054;2023-04-24T13:37:53;11.07;;;4.90;;
72924;SDS011;61070;50.794;7.054;2023-04-24T13:40:19;14.27;;;5.45;;
72924;SDS011;61070;50.794;7.054;2023-04-24T13:42:44;11.85;;;5.43;;
72924;SDS011;61070;50.794;7.054;2023-04-24T13:45:10;12.50;;;5.60;;
72924;SDS011;61070;50.794;7.054;2023-04-24T13:47:35;14.18;;;5.70;;
72924;SDS011;61070;50.794;7.054;2023-04-24T13:50:01;12.43;;;6.18;;
72924;SDS011;61070;50.794;7.054;2023-04-24T13:52:27;12.57;;;5.38;;
72924;SDS011;61070;50.794;7.054;2023-04-24T13:54:52;14.27;;;6.38;;
72924;SDS011;61070;50.794;7.054;2023-04-24T13:57:17;12.48;;;5.20;;
72924;SDS011;61070;50.794;7.054;2023-04-24T13:59:43;10.75;;;5.53;;
72924;SDS011;61070;50.794;7.054;2023-04-24T14:02:08;13.73;;;5.60;;
72924;SDS011;61070;50.794;7.054;2023-04-24T14:04:33;22.70;;;7.88;;
72924;SDS011;61070;50.794;7.054;2023-04-24T14:06:59;14.45;;;5.22;;
72924;SDS011;61070;50.794;7.054;2023-04-24T14:09:24;17.05;;;6.20;;
72924;SDS011;61070;50.794;7.054;2023-04-24T14:11:49;17.52;;;6.53;;
72924;SDS011;61070;50.794;7.054;2023-04-24T14:14:16;14.50;;;6.75;;
72924;SDS011;61070;50.794;7.054;2023-04-24T14:16:41;11.70;;;5.28;;
72924;SDS011;61070;50.794;7.054;2023-04-24T14:19:06;13.13;;;5.28;;
72924;SDS011;61070;50.794;7.054;2023-04-24T14:21:32;13.02;;;5.75;;
72924;SDS011;61070;50.794;7.054;2023-04-24T14:23:57;15.77;;;5.25;;
72924;SDS011;61070;50.794;7.054;2023-04-24T14:26:23;14.88;;;5.70;;
72924;SDS011;61070;50.794;7.054;2023-04-24T14:28:49;14.07;;;5.97;;
72924;SDS011;61070;50.794;7.054;2023-04-24T14:31:14;14.20;;;6.63;;
72924;SDS011;61070;50.794;7.054;2023-04-24T14:33:40;19.02;;;7.03;;
72924;SDS011;61070;50.794;7.054;2023-04-24T14:36:05;12.57;;;5.85;;
72924;SDS011;61070;50.794;7.054;2023-04-24T14:38:31;12.25;;;5.35;;
72924;SDS011;61070;50.794;7.054;2023-04-24T14:40:56;11.90;;;5.80;;
72924;SDS011;61070;50.794;7.054;2023-04-24T14:43:22;12.95;;;5.72;;
72924;SDS011;61070;50.794;7.054;2023-04-24T14:45:47;12.82;;;5.85;;
72924;SDS011;61070;50.794;7.054;2023-04-24T14:48:13;13.20;;;5.80;;